createdAt,value
2022-09-20T00:01:33.700Z,10.44
2022-09-20T00:04:05.312Z,10.50
2022-09-20T00:06:34.683Z,10.56
2022-09-20T00:09:03.208Z,10.38
2022-09-20T00:11:33.629Z,10.44
2022-09-20T00:14:08.633Z,10.31
2022-09-20T00:16:40.264Z,10.31
2022-09-20T00:19:09.422Z,10.50
2022-09-20T00:21:37.950Z,10.50
2022-09-20T00:24:06.263Z,10.38
2022-09-20T00:26:33.699Z,10.44
2022-09-20T00:29:01.698Z,10.38
2022-09-20T00:31:29.066Z,10.50
2022-09-20T00:34:18.228Z,10.38
2022-09-20T00:36:46.166Z,10.44
2022-09-20T00:39:16.543Z,10.50
2022-09-20T00:41:44.305Z,10.38
2022-09-20T00:45:06.464Z,10.38
2022-09-20T00:47:52.651Z,10.38
2022-09-20T00:50:48.389Z,10.38
2022-09-20T00:53:29.060Z,10.25
2022-09-20T00:56:05.788Z,10.31
2022-09-20T00:58:40.405Z,10.25
2022-09-20T01:01:08.129Z,10.13
2022-09-20T01:03:38.707Z,10.25
2022-09-20T01:06:12.097Z,10.25
2022-09-20T01:08:42.472Z,10.13
2022-09-20T01:11:09.829Z,10.13
2022-09-20T01:13:37.076Z,10.19
2022-09-20T01:16:05.968Z,10.00
2022-09-20T01:18:35.438Z,10.00
2022-09-20T01:21:04.776Z,9.94
2022-09-20T01:23:50.196Z,10.00
2022-09-20T01:26:48.387Z,10.00
2022-09-20T01:29:43.262Z,10.13
2022-09-20T01:32:14.379Z,10.13
2022-09-20T01:34:48.474Z,10.19
2022-09-20T01:37:25.185Z,10.06
2022-09-20T01:40:04.333Z,9.69
2022-09-20T01:42:40.486Z,9.88
2022-09-20T01:45:16.660Z,9.94
2022-09-20T01:48:14.250Z,10.00
2022-09-20T01:50:59.512Z,9.88
2022-09-20T01:53:47.003Z,9.88
2022-09-20T01:56:44.803Z,9.81
2022-09-20T01:59:25.166Z,10.00
2022-09-20T02:02:38.142Z,9.88
2022-09-20T02:05:28.241Z,9.88
2022-09-20T02:08:09.899Z,10.00
2022-09-20T02:10:58.189Z,9.94
2022-09-20T02:13:39.280Z,9.81
2022-09-20T02:16:49.791Z,10.06
2022-09-20T02:19:38.234Z,10.06
2022-09-20T02:22:30.053Z,10.00
2022-09-20T02:25:44.153Z,10.06
2022-09-20T02:28:42.703Z,10.13
2022-09-20T02:31:49.598Z,10.06
2022-09-20T02:35:06.827Z,10.19
2022-09-20T02:38:36.679Z,10.19
2022-09-20T02:41:41.071Z,10.19
2022-09-20T02:44:26.634Z,10.13
2022-09-20T02:47:23.196Z,10.13
2022-09-20T02:50:20.892Z,10.19
2022-09-20T02:52:56.679Z,10.25
2022-09-20T02:55:41.937Z,10.25
2022-09-20T02:58:33.348Z,10.13
2022-09-20T03:01:24.892Z,10.19
2022-09-20T03:04:19.263Z,10.19
2022-09-20T03:07:23.700Z,10.25
2022-09-20T03:10:28.246Z,10.19
2022-09-20T03:13:20.040Z,10.19
2022-09-20T03:15:58.590Z,10.25
2022-09-20T03:18:35.112Z,10.13
2022-09-20T03:21:29.041Z,10.19
2022-09-20T03:24:24.535Z,10.25
2022-09-20T03:27:23.451Z,10.31
2022-09-20T03:30:25.508Z,10.38
2022-09-20T03:33:08.470Z,10.19
2022-09-20T03:36:01.493Z,10.19
2022-09-20T03:38:57.264Z,10.13
2022-09-20T03:41:49.794Z,10.19
2022-09-20T03:44:34.547Z,10.25
2022-09-20T03:47:27.916Z,10.25
2022-09-20T03:50:25.178Z,10.19
2022-09-20T03:53:22.226Z,10.31
2022-09-20T03:56:21.289Z,10.19
2022-09-20T03:59:25.568Z,10.31
2022-09-20T04:02:27.174Z,10.44
2022-09-20T04:05:12.864Z,10.38
2022-09-20T04:08:06.656Z,10.38
2022-09-20T04:10:59.868Z,10.31
2022-09-20T04:13:39.456Z,10.38
2022-09-20T04:16:20.748Z,10.25
2022-09-20T04:19:30.825Z,10.25
2022-09-20T04:22:02.225Z,10.31
2022-09-20T04:24:47.805Z,10.31
2022-09-20T04:27:27.521Z,10.31
2022-09-20T04:30:20.762Z,10.25
2022-09-20T04:32:56.737Z,10.31
2022-09-20T04:36:03.668Z,10.13
2022-09-20T04:38:32.050Z,10.25
2022-09-20T04:41:38.410Z,10.31
2022-09-20T04:44:17.401Z,10.06
2022-09-20T04:46:44.615Z,10.25
2022-09-20T04:50:11.560Z,10.31
2022-09-20T04:53:15.507Z,10.38
2022-09-20T04:55:48.750Z,10.31
2022-09-20T04:58:38.691Z,10.25
2022-09-20T05:01:16.691Z,10.31
2022-09-20T05:04:33.550Z,10.13
2022-09-20T05:07:25.894Z,10.13
2022-09-20T05:10:04.400Z,10.13
2022-09-20T05:12:43.722Z,10.25
2022-09-20T05:15:36.481Z,10.38
2022-09-20T05:18:51.028Z,10.44
2022-09-20T05:21:43.312Z,10.44
2022-09-20T05:24:25.749Z,10.31
2022-09-20T05:27:19.719Z,10.44
2022-09-20T05:30:06.629Z,10.38
2022-09-20T05:33:02.524Z,10.50
2022-09-20T05:35:50.324Z,10.25
2022-09-20T05:39:17.808Z,10.31
2022-09-20T05:42:03.200Z,10.44
2022-09-20T05:44:54.684Z,10.50
2022-09-20T05:48:17.296Z,10.31
2022-09-20T05:51:03.599Z,10.44
2022-09-20T06:19:09.262Z,10.69
2022-09-20T06:21:51.690Z,10.69
2022-09-20T06:24:30.943Z,10.56
2022-09-20T06:27:04.321Z,10.38
2022-09-20T06:29:36.924Z,10.38
2022-09-20T06:32:04.262Z,10.50
2022-09-20T06:34:32.163Z,10.63
2022-09-20T06:37:34.504Z,10.63
2022-09-20T06:40:51.005Z,10.63
2022-09-20T06:43:19.452Z,10.56
2022-09-20T06:45:48.217Z,10.69
2022-09-20T06:48:16.165Z,10.75
2022-09-20T06:50:45.350Z,10.75
2022-09-20T06:53:18.188Z,10.81
2022-09-20T06:55:46.911Z,10.69
2022-09-20T06:58:14.234Z,10.75
2022-09-20T07:00:41.634Z,10.75
2022-09-20T07:03:09.061Z,10.69
2022-09-20T07:05:36.471Z,10.69
2022-09-20T07:08:04.326Z,10.75
2022-09-20T07:10:31.999Z,10.69
2022-09-20T07:13:01.856Z,10.69
2022-09-20T07:15:33.760Z,10.75
2022-09-20T07:18:01.810Z,10.75
2022-09-20T07:20:29.147Z,10.81
2022-09-20T07:22:56.434Z,10.88
2022-09-20T07:25:23.829Z,10.94
2022-09-20T07:27:51.867Z,10.94
2022-09-20T07:30:20.554Z,10.88
2022-09-20T07:32:48.051Z,10.88
2022-09-20T07:35:16.236Z,10.94
2022-09-20T07:37:43.895Z,11.00
2022-09-20T07:40:12.535Z,10.94
2022-09-20T07:42:39.880Z,10.88
2022-09-20T07:45:08.077Z,10.94
2022-09-20T07:47:41.293Z,11.00
2022-09-20T07:50:11.310Z,11.13
2022-09-20T07:52:38.698Z,11.06
2022-09-20T07:55:06.553Z,11.13
2022-09-20T07:57:38.098Z,11.19
2022-09-20T08:00:09.054Z,11.31
2022-09-20T08:02:37.220Z,11.19
2022-09-20T08:05:05.140Z,11.13
2022-09-20T08:07:32.407Z,11.25
2022-09-20T08:09:59.929Z,11.25
2022-09-20T08:15:15.379Z,11.13
2022-09-20T08:17:42.652Z,11.19
2022-09-20T08:20:10.133Z,11.13
2022-09-20T08:22:40.451Z,11.00
2022-09-20T08:25:08.232Z,10.94
2022-09-20T08:27:35.548Z,10.75
2022-09-20T08:30:02.818Z,10.94
2022-09-20T08:32:29.994Z,10.88
2022-09-20T08:34:57.222Z,11.00
2022-09-20T08:37:24.459Z,11.19
2022-09-20T08:39:59.430Z,11.19
2022-09-20T08:42:36.746Z,11.25
2022-09-20T08:45:34.779Z,11.44
2022-09-20T08:48:07.433Z,11.38
2022-09-20T08:50:35.336Z,11.38
2022-09-20T08:53:06.571Z,11.44
2022-09-20T08:55:37.362Z,11.25
2022-09-20T08:58:08.841Z,11.25
2022-09-20T09:00:39.605Z,11.38
2022-09-20T09:03:19.036Z,11.56
2022-09-20T09:05:48.395Z,11.44
2022-09-20T09:08:22.645Z,11.44
2022-09-20T09:10:54.809Z,11.50
2022-09-20T09:13:39.868Z,11.56
2022-09-20T09:16:14.964Z,11.31
2022-09-20T09:18:46.082Z,11.38
2022-09-20T09:21:29.350Z,11.56
2022-09-20T09:24:12.838Z,11.56
2022-09-20T09:26:43.471Z,11.50
2022-09-20T09:29:17.802Z,11.69
2022-09-20T09:31:48.262Z,11.63
2022-09-20T09:34:38.833Z,11.81
2022-09-20T09:37:06.169Z,12.06
2022-09-20T09:39:38.084Z,12.06
2022-09-20T09:42:26.236Z,12.25
2022-09-20T09:44:53.469Z,12.19
2022-09-20T09:47:28.810Z,12.25
2022-09-20T09:50:04.880Z,12.00
2022-09-20T09:52:36.418Z,11.94
2022-09-20T09:55:06.168Z,12.13
2022-09-20T09:57:57.115Z,12.31
2022-09-20T10:00:27.336Z,12.31
2022-09-20T10:03:39.809Z,12.75
2022-09-20T10:06:38.822Z,12.94
2022-09-20T10:09:41.127Z,12.69
2022-09-20T10:12:20.764Z,12.56
2022-09-20T10:15:21.377Z,12.44
2022-09-20T10:18:22.960Z,12.69
2022-09-20T10:21:06.674Z,12.38
2022-09-20T10:24:04.466Z,12.50
2022-09-20T10:26:44.248Z,12.56
2022-09-20T10:29:31.958Z,12.38
2022-09-20T10:32:15.384Z,12.38
2022-09-20T10:35:26.765Z,12.56
2022-09-20T10:38:11.718Z,12.50
2022-09-20T10:41:25.225Z,12.56
2022-09-20T10:44:13.373Z,12.44
2022-09-20T10:47:03.014Z,12.56
2022-09-20T10:49:56.515Z,12.69
2022-09-20T10:52:56.250Z,12.44
2022-09-20T10:55:35.255Z,12.38
2022-09-20T11:16:09.717Z,12.44
2022-09-20T11:19:12.797Z,12.56
2022-09-20T11:22:06.271Z,12.38
2022-09-20T11:24:52.687Z,12.44
2022-09-20T11:27:39.199Z,12.44
2022-09-20T11:30:21.925Z,12.56
2022-09-20T11:33:06.545Z,12.56
2022-09-20T11:35:46.115Z,12.69
2022-09-20T11:38:53.208Z,12.50
2022-09-20T11:41:28.735Z,12.69
2022-09-20T11:44:07.044Z,12.81
2022-09-20T11:46:45.266Z,12.50
2022-09-20T11:49:20.916Z,12.81
2022-09-20T11:52:30.302Z,12.94
2022-09-20T11:55:25.231Z,13.25
2022-09-20T11:58:22.569Z,13.31
2022-09-20T12:00:57.085Z,13.19
2022-09-20T12:03:31.603Z,13.00
2022-09-20T12:06:02.887Z,13.00
2022-09-20T12:08:33.571Z,12.31
2022-09-20T12:11:11.562Z,12.06
2022-09-20T12:13:53.621Z,11.75
2022-09-20T12:16:46.203Z,11.06
2022-09-20T12:19:15.759Z,10.75
2022-09-20T12:22:01.001Z,10.31
2022-09-20T12:24:31.767Z,10.25
2022-09-20T12:27:20.145Z,10.44
2022-09-20T12:29:47.659Z,10.31
2022-09-20T12:32:52.152Z,10.50
2022-09-20T12:35:39.131Z,10.63
2022-09-20T12:38:21.560Z,10.38
2022-09-20T12:41:14.790Z,10.50
2022-09-20T12:44:00.085Z,10.63
2022-09-20T12:46:41.813Z,10.75
2022-09-20T12:49:44.573Z,10.69
2022-09-20T12:52:54.209Z,10.69
2022-09-20T12:55:30.211Z,10.94
2022-09-20T12:58:15.377Z,10.50
2022-09-20T13:00:47.461Z,10.50
2022-09-20T13:03:41.217Z,10.56
2022-09-20T13:06:10.884Z,10.50
2022-09-20T13:08:53.267Z,10.81
2022-09-20T13:11:43.822Z,10.81
2022-09-20T13:14:22.734Z,11.06
2022-09-20T13:17:12.281Z,11.19
2022-09-20T13:19:49.980Z,11.31
2022-09-20T13:22:45.470Z,11.31
2022-09-20T13:25:22.366Z,11.44
2022-09-20T13:28:24.895Z,11.50
2022-09-20T13:31:33.777Z,11.25
2022-09-20T13:34:24.831Z,11.56
2022-09-20T13:36:58.340Z,11.63
2022-09-20T13:39:37.410Z,11.75
2022-09-20T13:42:19.423Z,11.81
2022-09-20T13:44:48.667Z,11.81
2022-09-20T13:47:25.571Z,11.81
2022-09-20T13:49:53.179Z,11.81
2022-09-20T13:52:31.068Z,11.94
2022-09-20T13:54:58.362Z,11.88
2022-09-20T13:57:30.768Z,11.94
2022-09-20T13:59:59.329Z,11.81
2022-09-20T14:02:34.912Z,11.69
2022-09-20T14:05:06.018Z,11.81
2022-09-20T14:07:36.496Z,11.81
2022-09-20T14:10:04.782Z,11.81
2022-09-20T14:12:34.103Z,11.81
2022-09-20T14:15:07.286Z,11.56
2022-09-20T14:17:37.119Z,11.69
2022-09-20T14:20:06.013Z,11.75
2022-09-20T14:22:33.348Z,11.56
2022-09-20T14:25:25.516Z,11.63
2022-09-20T14:28:24.599Z,11.44
2022-09-20T14:31:13.731Z,11.75
2022-09-20T14:33:45.371Z,11.63
2022-09-20T14:36:19.431Z,11.50
2022-09-20T14:38:50.899Z,11.56
2022-09-20T14:41:40.218Z,11.44
2022-09-20T14:44:25.102Z,11.50
2022-09-20T14:46:52.364Z,11.50
2022-09-20T14:49:33.474Z,11.31
2022-09-20T14:52:26.918Z,11.31
2022-09-20T14:55:17.772Z,11.31
2022-09-20T14:57:47.170Z,11.31
2022-09-20T15:00:17.353Z,11.44
2022-09-20T15:02:46.218Z,11.38
2022-09-20T15:05:26.145Z,11.44
2022-09-20T15:07:57.439Z,11.38
2022-09-20T15:10:25.594Z,11.31
2022-09-20T15:12:52.913Z,11.13
2022-09-20T15:15:20.200Z,11.25
2022-09-20T15:17:48.864Z,11.19
2022-09-20T15:20:24.507Z,11.19
2022-09-20T15:22:52.363Z,11.13
2022-09-20T15:25:22.010Z,11.13
2022-09-20T15:27:50.959Z,11.19
2022-09-20T15:30:22.491Z,11.25
2022-09-20T15:32:49.802Z,11.31
2022-09-20T15:35:17.119Z,11.38
2022-09-20T15:37:45.629Z,11.19
2022-09-20T15:40:12.891Z,11.19
2022-09-20T15:42:41.487Z,11.00
2022-09-20T15:45:11.835Z,11.13
2022-09-20T15:47:41.304Z,11.00
2022-09-20T15:50:11.217Z,10.94
2022-09-20T15:52:40.722Z,11.00
2022-09-20T15:55:09.345Z,10.88
2022-09-20T15:57:36.678Z,10.88
2022-09-20T16:00:04.632Z,10.81
2022-09-20T16:02:31.857Z,10.69
2022-09-20T16:04:59.775Z,10.81
2022-09-20T16:07:26.990Z,10.69
2022-09-20T16:09:57.421Z,10.69
2022-09-20T16:12:26.299Z,10.75
2022-09-20T16:14:53.534Z,10.75
2022-09-20T16:17:40.902Z,10.75
2022-09-20T16:20:08.794Z,10.56
2022-09-20T16:22:36.247Z,10.56
2022-09-20T16:25:06.039Z,10.63
2022-09-20T16:27:34.982Z,10.50
2022-09-20T16:30:03.511Z,10.44
2022-09-20T16:32:30.648Z,10.44
2022-09-20T16:35:01.159Z,10.25
2022-09-20T16:37:32.930Z,10.38
2022-09-20T16:40:00.748Z,10.38
2022-09-20T16:42:28.002Z,10.38
2022-09-20T16:44:55.242Z,10.31
2022-09-20T16:47:24.058Z,10.25
2022-09-20T16:49:54.299Z,10.25
2022-09-20T16:52:21.632Z,10.25
2022-09-20T16:54:49.096Z,10.19
2022-09-20T16:57:16.627Z,10.13
2022-09-20T16:59:44.425Z,10.00
2022-09-20T17:02:13.188Z,10.06
2022-09-20T17:04:41.931Z,9.88
2022-09-20T17:07:09.136Z,9.94
2022-09-20T17:09:36.300Z,10.06
2022-09-20T17:12:09.453Z,9.88
2022-09-20T17:14:37.220Z,9.94
2022-09-20T17:17:04.523Z,9.88
2022-09-20T17:19:31.723Z,9.81
2022-09-20T17:22:00.196Z,9.44
2022-09-20T17:24:27.799Z,9.69
2022-09-20T17:26:54.971Z,9.75
2022-09-20T17:29:22.363Z,9.75
2022-09-20T17:31:56.895Z,9.75
2022-09-20T17:34:26.481Z,9.63
2022-09-20T17:36:56.881Z,9.56
2022-09-20T17:39:24.540Z,9.63
2022-09-20T17:41:51.913Z,9.63
2022-09-20T17:44:19.561Z,9.75
2022-09-20T17:46:49.996Z,9.50
2022-09-20T17:49:20.339Z,9.56
2022-09-20T17:51:54.608Z,9.56
2022-09-20T17:54:24.506Z,9.31
2022-09-20T17:56:55.957Z,9.56
2022-09-20T17:59:24.622Z,9.63
2022-09-20T18:01:54.285Z,9.44
2022-09-20T18:04:24.357Z,9.44
2022-09-20T18:06:54.104Z,9.44
2022-09-20T18:09:25.104Z,9.25
2022-09-20T18:11:54.998Z,9.31
2022-09-20T18:14:25.687Z,9.38
2022-09-20T18:16:55.915Z,9.38
2022-09-20T18:19:23.216Z,9.19
2022-09-20T18:21:51.223Z,9.19
2022-09-20T18:24:18.607Z,9.25
2022-09-20T18:26:45.816Z,9.31
2022-09-20T18:29:18.033Z,9.13
2022-09-20T18:31:50.118Z,9.25
2022-09-20T18:34:25.558Z,9.25
2022-09-20T18:36:57.746Z,9.31
2022-09-20T18:39:34.975Z,9.38
2022-09-20T18:42:03.572Z,9.50
2022-09-20T18:44:32.347Z,9.38
2022-09-20T18:47:01.293Z,9.25
2022-09-20T18:49:30.499Z,9.44
2022-09-20T18:51:58.624Z,9.38
2022-09-20T18:54:30.306Z,9.06
2022-09-20T18:56:57.967Z,9.25
2022-09-20T18:59:27.781Z,9.19
2022-09-20T19:02:06.836Z,9.38
2022-09-20T19:05:17.472Z,9.38
2022-09-20T19:08:08.387Z,9.38
2022-09-20T19:10:49.644Z,9.44
2022-09-20T19:13:46.953Z,9.50
2022-09-20T19:16:30.642Z,9.63
2022-09-20T19:19:06.639Z,9.50
2022-09-20T19:22:29.040Z,9.50
2022-09-20T19:25:23.954Z,9.56
2022-09-20T19:27:52.433Z,9.44
2022-09-20T19:30:20.433Z,9.56
2022-09-20T19:32:48.151Z,9.56
2022-09-20T19:35:32.352Z,9.50
2022-09-20T19:38:40.848Z,9.56
2022-09-20T19:41:47.321Z,9.63
2022-09-20T19:44:21.479Z,9.63
2022-09-20T19:47:06.735Z,9.56
2022-09-20T19:49:59.166Z,9.69
2022-09-20T19:52:26.700Z,9.63
2022-09-20T19:54:54.363Z,9.50
2022-09-20T19:57:24.050Z,9.56
2022-09-20T19:59:51.862Z,9.56
2022-09-20T20:02:19.475Z,9.56
2022-09-20T20:04:47.015Z,9.44
2022-09-20T20:07:40.188Z,9.50
2022-09-20T20:10:35.338Z,9.56
2022-09-20T20:13:34.130Z,9.44
2022-09-20T20:16:11.999Z,9.56
2022-09-20T20:19:31.730Z,9.56
2022-09-20T20:22:28.465Z,9.25
2022-09-20T20:24:56.958Z,9.38
2022-09-20T20:27:28.216Z,9.38
2022-09-20T20:29:56.472Z,9.44
2022-09-20T20:32:24.533Z,9.38
2022-09-20T20:34:51.756Z,9.31
2022-09-20T20:37:18.919Z,9.38
2022-09-20T20:39:46.079Z,9.38
2022-09-20T20:42:13.323Z,9.38
2022-09-20T20:44:40.717Z,9.25
2022-09-20T20:47:08.172Z,9.25
2022-09-20T20:49:36.054Z,9.25
2022-09-20T20:52:05.155Z,9.06
2022-09-20T20:54:33.058Z,8.94
2022-09-20T20:57:02.654Z,9.06
2022-09-20T20:59:29.903Z,9.06
2022-09-20T21:01:57.162Z,8.94
2022-09-20T21:04:25.387Z,8.81
2022-09-20T21:06:52.598Z,8.81
2022-09-20T21:09:19.787Z,8.88
2022-09-20T21:11:48.449Z,8.88
2022-09-20T21:14:15.995Z,8.75
2022-09-20T21:16:44.076Z,8.81
2022-09-20T21:19:16.892Z,8.69
2022-09-20T21:21:46.351Z,8.81
2022-09-20T21:24:17.379Z,8.75
2022-09-20T21:26:46.295Z,8.81
2022-09-20T21:29:15.918Z,8.69
2022-09-20T21:31:45.941Z,8.44
2022-09-20T21:34:15.826Z,8.56
2022-09-20T21:36:44.868Z,8.69
2022-09-20T21:39:12.546Z,8.63
2022-09-20T21:41:41.031Z,8.81
2022-09-20T21:50:06.981Z,8.50
2022-09-20T21:52:34.556Z,8.75
2022-09-20T21:55:01.787Z,8.63
2022-09-20T21:57:29.059Z,8.63
2022-09-20T21:59:56.247Z,8.44
2022-09-20T22:02:23.945Z,8.44
2022-09-20T22:04:51.688Z,8.50
2022-09-20T22:07:18.946Z,8.44
2022-09-20T22:09:46.087Z,8.38
2022-09-20T22:12:13.316Z,8.44
2022-09-20T22:14:40.550Z,8.25
2022-09-20T22:17:07.927Z,8.25
2022-09-20T22:19:35.123Z,8.50
2022-09-20T22:22:02.714Z,8.56
2022-09-20T22:24:30.049Z,8.63
2022-09-20T22:26:57.157Z,8.69
2022-09-20T22:29:24.261Z,8.75
2022-09-20T22:31:51.449Z,8.69
2022-09-20T22:34:21.572Z,8.75
2022-09-20T22:36:49.747Z,8.94
2022-09-20T22:39:17.356Z,8.88
2022-09-20T22:41:44.950Z,8.75
2022-09-20T22:44:12.357Z,8.50
2022-09-20T22:46:40.411Z,8.69
2022-09-20T22:49:09.486Z,8.88
2022-09-20T22:51:37.581Z,8.81
2022-09-20T22:54:08.612Z,8.75
2022-09-20T22:56:37.025Z,8.69
2022-09-20T22:59:08.117Z,8.81
2022-09-20T23:01:44.651Z,8.88
2022-09-20T23:04:19.139Z,8.69
2022-09-20T23:06:51.859Z,8.56
2022-09-20T23:09:19.158Z,8.56
2022-09-20T23:11:47.149Z,8.31
2022-09-20T23:14:20.292Z,8.44
2022-09-20T23:16:48.883Z,8.63
2022-09-20T23:19:16.662Z,8.44
2022-09-20T23:21:45.054Z,8.56
2022-09-20T23:24:14.599Z,8.44
2022-09-20T23:26:43.107Z,8.31
2022-09-20T23:29:16.356Z,8.19
2022-09-20T23:31:47.260Z,8.44
2022-09-20T23:34:16.077Z,8.44
2022-09-20T23:36:44.304Z,8.44
2022-09-20T23:39:12.767Z,8.38
2022-09-20T23:41:41.422Z,8.50
2022-09-20T23:44:10.294Z,8.44
2022-09-20T23:46:39.232Z,8.63
2022-09-20T23:49:07.154Z,8.69
2022-09-20T23:51:35.477Z,8.56
2022-09-20T23:54:02.943Z,8.63
2022-09-20T23:56:30.451Z,8.69
2022-09-20T23:58:57.793Z,8.56
